createdAt,value
2022-07-31T00:00:45.299Z,74.26
2022-07-31T00:01:48.208Z,74.34
2022-07-31T00:02:51.679Z,74.59
2022-07-31T00:03:54.942Z,74.82
2022-07-31T00:04:57.895Z,75.18
2022-07-31T00:06:00.876Z,74.99
2022-07-31T00:07:04.625Z,75.36
2022-07-31T00:08:07.861Z,75.54
2022-07-31T00:09:51.633Z,75.29
2022-07-31T00:10:34.161Z,75.19
2022-07-31T00:11:37.136Z,75.26
2022-07-31T00:12:40.066Z,75.23
2022-07-31T00:13:57.097Z,75.41
2022-07-31T00:15:02.060Z,75.45
2022-07-31T00:16:05.095Z,75.77
2022-07-31T00:17:08.084Z,75.62
2022-07-31T00:18:11.779Z,75.70
2022-07-31T00:19:14.812Z,75.61
2022-07-31T00:20:18.225Z,75.46
2022-07-31T00:21:21.218Z,75.39
2022-07-31T00:22:24.239Z,75.22
2022-07-31T00:23:27.145Z,75.15
2022-07-31T00:24:30.367Z,75.20
2022-07-31T00:25:33.531Z,75.11
2022-07-31T00:26:36.480Z,75.17
2022-07-31T00:27:40.201Z,75.25
2022-07-31T00:28:43.124Z,75.14
2022-07-31T00:29:46.034Z,75.03
2022-07-31T00:30:49.210Z,74.95
2022-07-31T00:31:52.152Z,75.04
2022-07-31T00:32:55.183Z,75.10
2022-07-31T00:33:58.236Z,75.08
2022-07-31T00:35:01.681Z,75.07
2022-07-31T00:36:04.982Z,75.07
2022-07-31T00:37:10.832Z,75.04
2022-07-31T00:38:29.079Z,75.31
2022-07-31T00:39:32.711Z,75.14
2022-07-31T00:40:35.723Z,75.18
2022-07-31T00:41:43.116Z,75.14
2022-07-31T00:42:46.211Z,75.22
2022-07-31T00:43:49.249Z,75.22
2022-07-31T00:44:52.774Z,75.13
2022-07-31T00:45:59.126Z,75.11
2022-07-31T00:47:02.912Z,75.30
2022-07-31T00:48:07.382Z,75.23
2022-07-31T00:49:10.857Z,75.20
2022-07-31T00:50:13.890Z,75.21
2022-07-31T00:51:18.191Z,75.35
2022-07-31T00:52:21.253Z,75.27
2022-07-31T00:53:24.233Z,75.50
2022-07-31T00:54:27.221Z,75.31
2022-07-31T00:55:30.264Z,75.24
2022-07-31T00:56:53.174Z,75.34
2022-07-31T00:57:56.312Z,75.37
2022-07-31T00:58:59.517Z,75.41
2022-07-31T01:00:02.411Z,75.49
2022-07-31T01:01:05.447Z,75.51
2022-07-31T01:02:08.438Z,75.43
2022-07-31T01:03:11.501Z,75.46
2022-07-31T01:04:16.427Z,75.53
2022-07-31T01:05:19.423Z,75.55
2022-07-31T01:06:22.519Z,75.66
2022-07-31T01:07:26.004Z,75.53
2022-07-31T01:08:29.100Z,75.70
2022-07-31T01:09:32.191Z,75.74
2022-07-31T01:10:53.753Z,75.77
2022-07-31T01:12:02.410Z,75.79
2022-07-31T01:13:08.438Z,75.89
2022-07-31T01:14:12.221Z,75.88
2022-07-31T01:15:16.344Z,75.98
2022-07-31T01:16:19.538Z,76.13
2022-07-31T01:17:23.449Z,76.17
2022-07-31T01:18:27.510Z,76.07
2022-07-31T01:19:39.723Z,76.24
2022-07-31T01:20:49.762Z,76.17
2022-07-31T01:22:33.097Z,76.42
2022-07-31T01:23:51.074Z,76.47
2022-07-31T01:25:26.898Z,76.66
2022-07-31T01:26:43.754Z,76.64
2022-07-31T01:27:56.290Z,76.76
2022-07-31T01:29:15.293Z,76.71
2022-07-31T01:30:18.661Z,76.89
2022-07-31T01:32:49.675Z,77.02
2022-07-31T01:33:57.575Z,77.06
2022-07-31T01:35:03.692Z,77.10
2022-07-31T01:36:09.415Z,77.03
2022-07-31T01:37:21.427Z,77.06
2022-07-31T01:38:27.263Z,77.11
2022-07-31T01:39:33.752Z,77.09
2022-07-31T01:40:48.261Z,77.19
2022-07-31T01:41:53.360Z,77.12
2022-07-31T01:43:01.881Z,77.18
2022-07-31T01:44:05.735Z,77.24
2022-07-31T01:45:10.895Z,77.34
2022-07-31T01:46:15.954Z,77.23
2022-07-31T01:47:20.579Z,77.32
2022-07-31T01:48:23.849Z,77.46
2022-07-31T01:49:28.247Z,77.49
2022-07-31T01:50:43.730Z,77.53
2022-07-31T01:51:48.098Z,77.68
2022-07-31T01:52:51.755Z,77.61
2022-07-31T01:53:55.874Z,77.72
2022-07-31T01:54:59.769Z,77.87
2022-07-31T01:56:04.471Z,77.82
2022-07-31T01:57:14.319Z,77.91
2022-07-31T01:58:26.734Z,77.89
2022-07-31T01:59:37.260Z,77.86
2022-07-31T02:00:54.858Z,77.93
2022-07-31T02:02:01.395Z,77.91
2022-07-31T02:03:09.621Z,77.95
2022-07-31T02:04:14.404Z,78.09
2022-07-31T02:05:18.530Z,78.01
2022-07-31T02:06:23.341Z,77.99
2022-07-31T02:07:27.405Z,78.04
2022-07-31T02:08:32.093Z,78.12
2022-07-31T02:09:36.112Z,78.06
2022-07-31T02:10:39.833Z,78.13
2022-07-31T02:11:53.525Z,78.04
2022-07-31T02:13:06.943Z,78.20
2022-07-31T02:14:10.646Z,78.19
2022-07-31T02:15:14.797Z,78.18
2022-07-31T02:16:20.276Z,78.22
2022-07-31T02:17:26.072Z,78.21
2022-07-31T02:18:51.138Z,78.20
2022-07-31T02:20:00.873Z,78.23
2022-07-31T02:21:04.300Z,78.25
2022-07-31T02:22:07.537Z,78.34
2022-07-31T02:23:12.018Z,78.24
2022-07-31T02:24:15.418Z,78.29
2022-07-31T02:25:18.333Z,78.17
2022-07-31T02:26:21.934Z,78.13
2022-07-31T02:27:53.999Z,78.18
2022-07-31T02:28:51.575Z,78.14
2022-07-31T02:29:55.605Z,78.11
2022-07-31T02:30:59.075Z,78.15
2022-07-31T02:32:03.432Z,78.18
2022-07-31T02:33:09.150Z,78.17
2022-07-31T02:34:13.676Z,78.21
2022-07-31T02:35:17.345Z,78.11
2022-07-31T02:36:21.382Z,78.12
2022-07-31T02:37:25.516Z,78.12
2022-07-31T02:38:29.908Z,77.98
2022-07-31T02:39:34.450Z,78.08
2022-07-31T02:40:37.986Z,77.91
2022-07-31T02:41:44.872Z,77.92
2022-07-31T02:42:49.076Z,77.94
2022-07-31T02:43:52.313Z,77.85
2022-07-31T02:44:57.133Z,77.88
2022-07-31T02:46:03.521Z,77.86
2022-07-31T02:47:07.494Z,77.91
2022-07-31T02:48:10.911Z,77.87
2022-07-31T02:49:16.778Z,77.86
2022-07-31T02:50:20.609Z,77.83
2022-07-31T02:51:24.462Z,77.81
2022-07-31T02:52:28.928Z,77.73
2022-07-31T02:53:32.337Z,77.80
2022-07-31T02:54:39.519Z,77.78
2022-07-31T02:55:44.589Z,77.71
2022-07-31T02:56:47.842Z,77.66
2022-07-31T02:57:51.380Z,77.54
2022-07-31T02:58:55.937Z,77.41
2022-07-31T03:00:14.683Z,77.26
2022-07-31T03:01:18.408Z,77.22
2022-07-31T03:02:21.476Z,77.07
2022-07-31T03:03:24.328Z,76.99
2022-07-31T03:04:27.314Z,76.94
2022-07-31T03:05:31.372Z,76.58
2022-07-31T03:06:34.457Z,76.43
2022-07-31T03:07:37.533Z,76.47
2022-07-31T03:08:40.534Z,76.34
2022-07-31T03:09:43.770Z,76.18
2022-07-31T03:11:05.066Z,76.02
2022-07-31T03:12:08.068Z,75.96
2022-07-31T03:13:12.113Z,75.97
2022-07-31T03:14:15.365Z,75.88
2022-07-31T03:15:19.806Z,75.79
2022-07-31T03:16:23.778Z,75.77
2022-07-31T03:17:38.209Z,75.72
2022-07-31T03:18:45.699Z,75.69
2022-07-31T03:19:49.472Z,75.69
2022-07-31T03:20:53.081Z,75.61
2022-07-31T03:21:56.412Z,75.53
2022-07-31T03:23:00.969Z,75.57
2022-07-31T03:24:04.679Z,75.47
2022-07-31T03:25:08.730Z,75.16
2022-07-31T03:26:11.944Z,75.27
2022-07-31T03:27:15.084Z,75.23
2022-07-31T03:28:19.398Z,75.21
2022-07-31T03:29:41.117Z,75.02
2022-07-31T03:30:55.271Z,75.03
2022-07-31T03:32:01.193Z,74.98
2022-07-31T03:33:04.543Z,74.96
2022-07-31T03:34:08.535Z,74.97
2022-07-31T03:35:11.878Z,74.90
2022-07-31T03:36:15.671Z,74.97
2022-07-31T03:37:18.675Z,74.76
2022-07-31T03:38:41.157Z,74.86
2022-07-31T03:39:45.366Z,74.78
2022-07-31T03:40:48.937Z,74.80
2022-07-31T03:41:52.288Z,74.85
2022-07-31T03:42:56.439Z,74.76
2022-07-31T03:43:59.542Z,74.73
2022-07-31T03:45:03.795Z,74.75
2022-07-31T03:46:07.423Z,74.68
2022-07-31T03:47:10.547Z,74.69
2022-07-31T03:48:14.036Z,74.75
2022-07-31T03:49:17.577Z,74.65
2022-07-31T03:50:20.872Z,74.77
2022-07-31T03:51:24.154Z,74.70
2022-07-31T03:52:27.699Z,74.78
2022-07-31T03:53:31.476Z,74.81
2022-07-31T03:54:34.607Z,74.71
2022-07-31T03:55:57.630Z,74.72
2022-07-31T03:57:00.925Z,74.57
2022-07-31T03:58:06.426Z,74.49
2022-07-31T03:59:11.378Z,74.39
2022-07-31T04:00:17.745Z,74.32
2022-07-31T04:01:21.781Z,74.32
2022-07-31T04:02:26.156Z,74.26
2022-07-31T04:03:38.297Z,73.98
2022-07-31T04:05:00.389Z,74.01
2022-07-31T04:06:03.401Z,74.08
2022-07-31T04:07:06.405Z,74.11
2022-07-31T04:08:09.990Z,74.03
2022-07-31T04:09:15.582Z,74.00
2022-07-31T04:10:23.077Z,73.84
2022-07-31T04:11:25.946Z,73.75
2022-07-31T04:12:28.945Z,73.67
2022-07-31T04:13:32.037Z,73.73
2022-07-31T04:14:35.105Z,73.61
2022-07-31T04:15:38.221Z,73.43
2022-07-31T04:16:41.255Z,73.54
2022-07-31T04:17:44.405Z,73.39
2022-07-31T04:18:50.642Z,73.32
2022-07-31T04:19:54.589Z,73.27
2022-07-31T04:20:57.598Z,73.17
2022-07-31T04:22:01.214Z,73.03
2022-07-31T04:23:04.762Z,72.95
2022-07-31T04:24:42.384Z,72.96
2022-07-31T04:26:03.738Z,72.99
2022-07-31T04:27:16.493Z,72.82
2022-07-31T04:28:20.063Z,72.81
2022-07-31T04:29:23.230Z,72.54
2022-07-31T04:30:26.322Z,72.50
2022-07-31T04:31:30.972Z,72.48
2022-07-31T04:32:34.803Z,72.59
2022-07-31T04:33:48.881Z,72.39
2022-07-31T04:34:54.614Z,72.43
2022-07-31T04:35:57.762Z,72.37
2022-07-31T04:37:00.697Z,72.35
2022-07-31T04:38:03.613Z,72.37
2022-07-31T04:39:10.570Z,72.33
2022-07-31T04:40:14.124Z,72.17
2022-07-31T04:41:17.937Z,72.31
2022-07-31T04:42:21.758Z,72.18
2022-07-31T04:43:24.721Z,72.08
2022-07-31T04:44:27.549Z,72.05
2022-07-31T04:45:32.307Z,72.00
2022-07-31T04:46:35.462Z,71.93
2022-07-31T04:47:38.723Z,71.83
2022-07-31T04:48:41.908Z,71.68
2022-07-31T04:49:48.637Z,71.74
2022-07-31T04:51:02.796Z,71.69
2022-07-31T04:52:07.196Z,71.58
2022-07-31T04:53:10.881Z,71.52
2022-07-31T04:54:16.445Z,71.48
2022-07-31T04:55:21.072Z,71.46
2022-07-31T04:56:37.502Z,71.44
2022-07-31T04:57:40.672Z,71.15
2022-07-31T04:58:43.633Z,71.20
2022-07-31T04:59:57.870Z,71.15
2022-07-31T05:01:03.205Z,71.10
2022-07-31T05:02:07.325Z,71.09
2022-07-31T05:03:10.879Z,71.05
2022-07-31T05:04:16.313Z,71.06
2022-07-31T05:05:19.276Z,71.02
2022-07-31T05:06:23.049Z,70.98
2022-07-31T05:07:26.678Z,70.98
2022-07-31T05:08:32.363Z,70.70
2022-07-31T05:09:36.455Z,70.57
2022-07-31T05:11:00.346Z,70.49
2022-07-31T05:12:04.802Z,70.36
2022-07-31T05:13:08.550Z,70.54
2022-07-31T05:14:12.533Z,70.44
2022-07-31T05:15:17.244Z,70.43
2022-07-31T05:16:21.138Z,70.33
2022-07-31T05:17:24.019Z,70.16
2022-07-31T05:18:47.770Z,70.29
2022-07-31T05:20:16.492Z,70.17
2022-07-31T05:21:51.364Z,70.16
2022-07-31T05:23:08.665Z,70.05
2022-07-31T05:24:32.748Z,70.17
2022-07-31T05:25:46.269Z,69.97
2022-07-31T05:26:50.165Z,69.80
2022-07-31T05:27:53.042Z,69.77
2022-07-31T05:28:58.736Z,69.90
2022-07-31T05:30:02.690Z,69.85
2022-07-31T05:31:07.486Z,69.73
2022-07-31T05:32:10.687Z,69.72
2022-07-31T05:33:13.974Z,69.55
2022-07-31T05:34:19.628Z,69.50
2022-07-31T05:35:22.485Z,69.46
2022-07-31T05:36:27.110Z,69.36
2022-07-31T05:37:30.079Z,69.11
2022-07-31T05:38:35.433Z,68.99
2022-07-31T05:39:50.611Z,68.95
2022-07-31T05:41:12.280Z,68.89
2022-07-31T05:42:38.767Z,68.70
2022-07-31T05:44:05.635Z,68.71
2022-07-31T05:45:21.572Z,68.72
2022-07-31T05:46:24.578Z,68.59
2022-07-31T05:47:40.457Z,68.63
2022-07-31T05:48:45.592Z,68.72
2022-07-31T05:49:48.994Z,68.47
2022-07-31T05:50:52.703Z,68.56
2022-07-31T05:51:55.663Z,68.27
2022-07-31T05:52:58.605Z,68.26
2022-07-31T05:54:21.211Z,68.21
2022-07-31T05:55:43.267Z,68.08
2022-07-31T05:57:32.988Z,67.83
2022-07-31T05:58:38.253Z,67.87
2022-07-31T05:59:41.289Z,67.77
2022-07-31T06:00:45.201Z,67.63
2022-07-31T06:01:48.285Z,67.67
2022-07-31T06:02:51.541Z,67.57
2022-07-31T06:04:12.873Z,67.42
2022-07-31T06:05:21.267Z,67.27
2022-07-31T06:06:24.280Z,67.04
2022-07-31T06:07:28.430Z,67.01
2022-07-31T06:08:31.945Z,66.89
2022-07-31T06:09:35.065Z,67.05
2022-07-31T06:10:38.404Z,66.87
2022-07-31T06:11:41.924Z,66.67
2022-07-31T06:12:44.910Z,66.35
2022-07-31T06:13:47.963Z,66.41
2022-07-31T06:14:56.237Z,66.32
2022-07-31T06:16:15.999Z,66.20
2022-07-31T06:17:19.056Z,66.35
2022-07-31T06:18:22.482Z,66.25
2022-07-31T06:19:26.211Z,66.06
2022-07-31T06:20:29.606Z,66.09
2022-07-31T06:21:32.784Z,66.04
2022-07-31T06:22:36.047Z,65.99
2022-07-31T06:23:39.334Z,65.88
2022-07-31T06:24:51.641Z,65.71
2022-07-31T06:25:54.987Z,65.46
2022-07-31T06:27:01.106Z,65.12
2022-07-31T06:28:10.228Z,65.13
2022-07-31T06:29:14.073Z,65.05
2022-07-31T06:30:17.302Z,65.18
2022-07-31T06:31:21.175Z,64.83
2022-07-31T06:32:24.364Z,64.92
2022-07-31T06:33:37.467Z,64.99
2022-07-31T06:34:41.617Z,64.88
2022-07-31T06:35:44.948Z,64.88
2022-07-31T06:37:05.039Z,64.69
2022-07-31T06:38:08.919Z,64.73
2022-07-31T06:39:54.456Z,64.58
2022-07-31T06:41:11.989Z,64.25
2022-07-31T06:42:26.021Z,64.10
2022-07-31T06:43:41.069Z,64.13
2022-07-31T06:45:02.614Z,63.84
2022-07-31T06:46:24.338Z,63.84
2022-07-31T06:47:46.167Z,63.59
2022-07-31T06:49:08.889Z,63.49
2022-07-31T06:50:12.243Z,63.16
2022-07-31T06:51:32.360Z,63.07
2022-07-31T06:52:35.674Z,62.74
2022-07-31T06:53:38.924Z,62.37
2022-07-31T06:54:43.056Z,62.36
2022-07-31T06:55:46.181Z,62.49
2022-07-31T06:56:49.371Z,62.27
2022-07-31T06:57:52.370Z,62.27
2022-07-31T06:58:55.765Z,62.30
2022-07-31T06:59:58.939Z,62.27
2022-07-31T07:01:01.988Z,62.30
2022-07-31T07:02:05.389Z,62.23
2022-07-31T07:03:09.839Z,61.85
2022-07-31T07:04:12.797Z,61.81
2022-07-31T07:05:15.897Z,61.83
2022-07-31T07:06:19.385Z,61.83
2022-07-31T07:07:22.540Z,61.70
2022-07-31T07:08:26.338Z,61.41
2022-07-31T07:09:29.912Z,61.41
2022-07-31T07:10:33.087Z,61.38
2022-07-31T07:11:36.127Z,61.38
2022-07-31T07:12:39.474Z,61.41
2022-07-31T07:13:45.912Z,61.28
2022-07-31T07:14:50.711Z,61.06
2022-07-31T07:15:53.893Z,60.77
2022-07-31T07:17:02.022Z,60.72
2022-07-31T07:18:05.157Z,60.36
2022-07-31T07:19:14.718Z,59.97
2022-07-31T07:20:18.668Z,59.99
2022-07-31T07:21:22.088Z,59.92
2022-07-31T07:22:31.806Z,60.10
2022-07-31T07:23:36.816Z,60.15
2022-07-31T07:24:51.924Z,60.23
2022-07-31T07:25:58.856Z,60.14
2022-07-31T07:27:02.361Z,59.64
2022-07-31T07:28:06.835Z,59.27
2022-07-31T07:29:10.678Z,59.50
2022-07-31T07:30:13.707Z,59.13
2022-07-31T07:31:16.692Z,59.23
2022-07-31T07:32:19.933Z,59.35
2022-07-31T07:33:41.398Z,59.42
2022-07-31T07:34:48.402Z,58.76
2022-07-31T07:36:23.898Z,59.20
2022-07-31T07:37:39.301Z,59.13
2022-07-31T07:38:43.250Z,58.63
2022-07-31T07:39:47.162Z,58.55
2022-07-31T07:40:50.587Z,58.24
2022-07-31T07:41:53.524Z,58.21
2022-07-31T07:43:01.227Z,58.29
2022-07-31T07:44:06.790Z,58.09
2022-07-31T07:45:10.262Z,57.89
2022-07-31T07:46:13.274Z,57.86
2022-07-31T07:47:18.899Z,57.78
2022-07-31T07:48:22.020Z,57.71
2022-07-31T07:49:49.530Z,57.62
2022-07-31T07:51:10.988Z,57.75
2022-07-31T07:52:28.731Z,57.44
2022-07-31T07:53:37.956Z,57.50
2022-07-31T07:54:59.679Z,57.38
2022-07-31T07:56:21.037Z,57.47
2022-07-31T07:57:44.273Z,57.00
2022-07-31T07:59:05.908Z,57.18
2022-07-31T08:00:44.067Z,57.28
2022-07-31T08:01:47.491Z,57.21
2022-07-31T08:03:04.202Z,57.24
2022-07-31T08:04:18.126Z,57.27
2022-07-31T08:05:22.520Z,57.29
2022-07-31T08:06:25.500Z,57.45
2022-07-31T08:07:42.123Z,57.40
2022-07-31T08:09:08.818Z,57.45
2022-07-31T08:10:30.194Z,57.30
2022-07-31T08:11:42.603Z,56.62
2022-07-31T08:12:54.890Z,56.61
2022-07-31T08:14:30.185Z,56.63
2022-07-31T08:15:59.409Z,56.57
2022-07-31T08:17:12.143Z,56.47
2022-07-31T08:18:17.508Z,56.41
2022-07-31T08:19:20.593Z,56.52
2022-07-31T08:20:26.260Z,56.37
2022-07-31T08:21:29.436Z,56.53
2022-07-31T08:22:32.510Z,56.47
2022-07-31T08:23:35.866Z,56.28
2022-07-31T08:24:39.233Z,56.22
2022-07-31T08:25:42.755Z,56.45
2022-07-31T08:27:04.473Z,56.35
2022-07-31T08:28:19.513Z,56.26
2022-07-31T08:29:28.761Z,56.24
2022-07-31T08:30:43.831Z,56.00
2022-07-31T08:31:49.372Z,55.42
2022-07-31T08:33:25.027Z,55.47
2022-07-31T08:34:32.235Z,55.30
2022-07-31T08:35:38.346Z,55.43
2022-07-31T08:36:42.102Z,55.61
2022-07-31T08:37:52.120Z,55.65
2022-07-31T08:39:06.114Z,55.11
2022-07-31T08:40:25.689Z,55.17
2022-07-31T08:41:28.730Z,55.25
2022-07-31T08:42:32.534Z,55.13
2022-07-31T08:44:03.288Z,55.18
2022-07-31T08:44:59.055Z,55.03
2022-07-31T08:46:05.823Z,55.01
2022-07-31T08:47:15.043Z,55.25
2022-07-31T08:48:21.519Z,55.31
2022-07-31T08:49:26.346Z,55.19
2022-07-31T08:50:30.909Z,55.36
2022-07-31T08:51:51.110Z,55.27
2022-07-31T08:53:33.153Z,54.83
2022-07-31T08:54:43.461Z,54.24
2022-07-31T08:55:57.136Z,54.48
2022-07-31T08:57:02.852Z,54.66
2022-07-31T08:58:06.421Z,54.72
2022-07-31T08:59:09.799Z,54.87
2022-07-31T09:00:17.577Z,54.88
2022-07-31T09:01:20.665Z,55.09
2022-07-31T09:02:23.638Z,54.90
2022-07-31T09:03:56.762Z,54.25
2022-07-31T09:04:59.786Z,53.86
2022-07-31T09:06:03.553Z,53.72
2022-07-31T09:07:10.414Z,53.29
2022-07-31T09:08:15.000Z,53.63
2022-07-31T09:09:20.082Z,53.48
2022-07-31T09:10:24.962Z,53.28
2022-07-31T09:11:28.836Z,53.22
2022-07-31T09:13:12.174Z,53.53
2022-07-31T09:14:24.393Z,53.08
2022-07-31T09:15:31.002Z,52.82
2022-07-31T09:16:46.838Z,52.63
2022-07-31T09:17:51.944Z,52.57
2022-07-31T09:19:01.436Z,52.47
2022-07-31T09:20:05.826Z,52.52
2022-07-31T09:21:10.776Z,52.67
2022-07-31T09:22:27.125Z,52.97
2022-07-31T09:23:32.222Z,53.35
2022-07-31T09:24:36.933Z,53.58
2022-07-31T09:25:52.302Z,53.46
2022-07-31T09:27:05.537Z,53.44
2022-07-31T09:28:09.315Z,53.29
2022-07-31T09:29:13.038Z,53.60
2022-07-31T09:30:16.875Z,53.73
2022-07-31T09:31:32.440Z,53.82
2022-07-31T09:32:57.420Z,53.64
2022-07-31T09:34:27.029Z,53.55
2022-07-31T09:35:52.488Z,53.19
2022-07-31T09:36:55.593Z,53.03
2022-07-31T09:38:41.287Z,53.14
2022-07-31T09:40:02.915Z,52.96
2022-07-31T09:41:58.059Z,52.91
2022-07-31T09:43:19.380Z,52.04
2022-07-31T09:44:25.292Z,51.84
2022-07-31T09:45:32.001Z,51.84
2022-07-31T09:46:41.094Z,52.14
2022-07-31T09:47:45.106Z,52.06
2022-07-31T09:48:59.942Z,52.27
2022-07-31T09:50:04.991Z,52.36
2022-07-31T09:51:09.016Z,52.59
2022-07-31T09:52:19.678Z,52.85
2022-07-31T09:53:22.782Z,53.14
2022-07-31T09:54:29.914Z,53.36
2022-07-31T09:55:51.663Z,53.56
2022-07-31T09:56:56.057Z,53.36
2022-07-31T09:58:00.284Z,53.19
2022-07-31T09:59:12.111Z,53.12
2022-07-31T10:00:17.408Z,52.86
2022-07-31T10:01:21.179Z,52.16
2022-07-31T10:02:26.191Z,51.84
2022-07-31T10:03:30.842Z,52.22
2022-07-31T10:04:37.411Z,52.46
2022-07-31T10:05:43.716Z,52.57
2022-07-31T10:06:48.993Z,52.52
2022-07-31T10:07:53.794Z,52.48
2022-07-31T10:09:05.023Z,52.64
2022-07-31T10:10:33.815Z,51.96
2022-07-31T10:12:01.001Z,51.58
2022-07-31T10:13:08.275Z,51.46
2022-07-31T10:14:17.167Z,51.77
2022-07-31T10:15:20.924Z,51.99
2022-07-31T10:16:45.139Z,51.86
2022-07-31T10:18:35.623Z,51.65
2022-07-31T10:20:09.490Z,50.97
2022-07-31T10:21:38.141Z,51.22
2022-07-31T10:22:49.791Z,51.52
2022-07-31T10:24:04.217Z,51.46
2022-07-31T10:25:13.098Z,51.20
2022-07-31T10:26:17.717Z,51.35
2022-07-31T10:27:26.343Z,51.08
2022-07-31T10:28:38.797Z,51.15
2022-07-31T10:29:49.435Z,50.54
2022-07-31T10:30:52.741Z,50.64
2022-07-31T10:32:01.034Z,50.67
2022-07-31T10:33:22.162Z,50.91
2022-07-31T10:34:49.567Z,50.97
2022-07-31T10:36:21.555Z,51.11
2022-07-31T10:38:15.854Z,50.77
2022-07-31T10:39:31.882Z,50.62
2022-07-31T10:41:10.640Z,50.93
2022-07-31T10:42:35.927Z,50.80
2022-07-31T10:43:48.221Z,50.86
2022-07-31T10:45:10.373Z,50.95
2022-07-31T10:46:31.916Z,51.17
2022-07-31T10:47:57.108Z,51.15
2022-07-31T10:49:48.874Z,51.17
2022-07-31T10:51:10.107Z,51.33
2022-07-31T10:52:34.836Z,50.95
2022-07-31T10:54:11.562Z,50.70
2022-07-31T10:55:43.350Z,50.74
2022-07-31T10:57:03.307Z,50.62
2022-07-31T10:58:19.905Z,50.69
2022-07-31T10:59:32.036Z,50.44
2022-07-31T11:01:09.658Z,50.48
2022-07-31T11:02:33.271Z,50.67
2022-07-31T11:03:49.812Z,50.82
2022-07-31T11:05:08.195Z,50.99
2022-07-31T11:06:40.391Z,50.94
2022-07-31T11:08:12.310Z,50.58
2022-07-31T11:09:27.750Z,50.55
2022-07-31T11:10:49.364Z,50.28
2022-07-31T11:12:18.875Z,50.06
2022-07-31T11:13:46.788Z,49.52
2022-07-31T11:14:59.398Z,49.57
2022-07-31T11:16:30.541Z,49.50
2022-07-31T11:18:22.235Z,49.32
2022-07-31T11:19:20.534Z,49.29
2022-07-31T11:20:28.417Z,49.30
2022-07-31T11:21:39.492Z,49.00
2022-07-31T11:22:43.135Z,48.84
2022-07-31T11:23:57.592Z,48.76
2022-07-31T11:25:06.285Z,48.76
2022-07-31T11:26:10.207Z,48.59
2022-07-31T11:27:13.542Z,48.70
2022-07-31T11:28:23.677Z,47.86
2022-07-31T11:29:59.210Z,48.11
2022-07-31T11:30:52.242Z,47.70
2022-07-31T11:31:55.498Z,47.38
2022-07-31T11:32:58.608Z,47.34
2022-07-31T11:34:04.116Z,47.42
2022-07-31T11:35:08.959Z,47.49
2022-07-31T11:36:21.885Z,47.61
2022-07-31T11:37:30.664Z,47.77
2022-07-31T11:38:52.204Z,48.09
2022-07-31T11:40:09.812Z,47.94
2022-07-31T11:41:13.643Z,47.88
2022-07-31T11:42:18.983Z,47.64
2022-07-31T11:43:26.331Z,47.44
2022-07-31T11:44:29.868Z,47.68
2022-07-31T11:45:35.611Z,47.61
2022-07-31T11:46:38.576Z,47.31
2022-07-31T11:48:10.975Z,47.06
2022-07-31T11:49:05.367Z,46.51
2022-07-31T11:50:10.685Z,46.51
2022-07-31T11:51:18.458Z,46.50
2022-07-31T11:52:30.850Z,46.70
2022-07-31T11:53:41.361Z,46.89
2022-07-31T11:54:44.288Z,47.02
2022-07-31T11:55:48.665Z,46.87
2022-07-31T11:56:54.396Z,46.94
2022-07-31T11:57:57.784Z,46.89
2022-07-31T11:59:00.767Z,46.69
2022-07-31T12:00:26.471Z,46.60
2022-07-31T12:01:30.751Z,46.94
2022-07-31T12:02:33.905Z,46.96
2022-07-31T12:03:38.694Z,47.04
2022-07-31T12:04:41.691Z,47.02
2022-07-31T12:05:45.708Z,47.00
2022-07-31T12:06:54.447Z,46.98
2022-07-31T12:07:57.494Z,46.92
2022-07-31T12:09:00.488Z,47.09
2022-07-31T12:10:04.389Z,46.98
2022-07-31T12:11:12.849Z,46.87
2022-07-31T12:12:19.028Z,46.95
2022-07-31T12:13:22.620Z,47.11
2022-07-31T12:14:35.884Z,47.07
2022-07-31T12:15:39.157Z,47.26
2022-07-31T12:16:42.400Z,47.32
2022-07-31T12:17:46.406Z,47.47
2022-07-31T12:18:50.607Z,47.51
2022-07-31T12:19:57.750Z,47.70
2022-07-31T12:21:04.829Z,47.46
2022-07-31T12:22:18.691Z,47.32
2022-07-31T12:23:38.577Z,47.54
2022-07-31T12:24:44.494Z,47.81
2022-07-31T12:25:47.436Z,48.01
2022-07-31T12:26:51.515Z,48.09
2022-07-31T12:27:55.468Z,48.09
2022-07-31T12:29:04.431Z,47.89
2022-07-31T12:30:17.570Z,48.04
2022-07-31T12:31:20.479Z,47.99
2022-07-31T12:32:24.505Z,47.85
2022-07-31T12:33:28.684Z,47.86
2022-07-31T12:34:38.909Z,47.88
2022-07-31T12:35:56.074Z,47.99
2022-07-31T12:37:06.137Z,48.17
2022-07-31T12:38:30.028Z,48.34
2022-07-31T12:39:50.796Z,48.45
2022-07-31T12:41:04.567Z,48.62
2022-07-31T12:42:07.735Z,48.85
2022-07-31T12:43:10.702Z,48.80
2022-07-31T12:44:14.651Z,48.76
2022-07-31T12:45:28.527Z,48.98
2022-07-31T12:46:37.972Z,48.78
2022-07-31T12:47:40.962Z,48.87
2022-07-31T12:48:46.142Z,48.78
2022-07-31T12:49:49.514Z,48.85
2022-07-31T12:50:52.631Z,48.88
2022-07-31T12:51:55.577Z,48.82
2022-07-31T12:53:00.434Z,48.87
2022-07-31T12:54:05.284Z,48.90
2022-07-31T12:55:08.487Z,48.81
2022-07-31T12:56:12.277Z,48.78
2022-07-31T12:57:15.196Z,48.92
2022-07-31T12:58:18.290Z,49.01
2022-07-31T12:59:21.437Z,49.26
2022-07-31T13:00:25.975Z,49.17
2022-07-31T13:01:29.399Z,49.22
2022-07-31T13:02:32.312Z,49.37
2022-07-31T13:03:46.106Z,49.40
2022-07-31T13:04:49.497Z,49.36
2022-07-31T13:05:52.448Z,49.50
2022-07-31T13:06:56.041Z,49.41
2022-07-31T13:07:59.018Z,49.37
2022-07-31T13:09:02.961Z,49.44
2022-07-31T13:10:19.867Z,49.59
2022-07-31T13:11:46.912Z,49.74
2022-07-31T13:12:51.829Z,49.67
2022-07-31T13:13:56.934Z,49.82
2022-07-31T13:15:01.599Z,50.02
2022-07-31T13:16:04.602Z,50.05
2022-07-31T13:17:07.937Z,50.16
2022-07-31T13:18:11.373Z,50.28
2022-07-31T13:19:15.336Z,50.40
2022-07-31T13:20:18.508Z,50.48
2022-07-31T13:21:24.110Z,50.54
2022-07-31T13:22:27.171Z,50.26
2022-07-31T13:23:30.567Z,50.26
2022-07-31T13:24:33.659Z,50.36
2022-07-31T13:25:36.782Z,50.52
2022-07-31T13:26:40.616Z,50.34
2022-07-31T13:27:43.678Z,50.27
2022-07-31T13:28:46.871Z,50.46
2022-07-31T13:29:49.985Z,50.64
2022-07-31T13:30:55.358Z,50.37
2022-07-31T13:31:58.319Z,50.45
2022-07-31T13:33:01.202Z,50.60
2022-07-31T13:34:04.730Z,50.69
2022-07-31T13:35:26.305Z,50.77
2022-07-31T13:36:35.799Z,50.63
2022-07-31T13:37:43.003Z,50.54
2022-07-31T13:38:45.954Z,50.60
2022-07-31T13:39:49.371Z,50.42
2022-07-31T13:41:10.749Z,50.43
2022-07-31T13:42:13.723Z,50.42
2022-07-31T13:43:17.821Z,50.27
2022-07-31T13:44:20.749Z,50.34
2022-07-31T13:45:24.047Z,49.99
2022-07-31T13:46:27.701Z,50.26
2022-07-31T13:47:51.308Z,50.03
2022-07-31T13:48:54.819Z,50.26
2022-07-31T13:49:57.981Z,49.95
2022-07-31T13:51:02.803Z,49.82
2022-07-31T13:52:06.326Z,50.01
2022-07-31T13:53:09.833Z,49.81
2022-07-31T13:54:12.863Z,50.01
2022-07-31T13:55:16.016Z,49.98
2022-07-31T13:56:36.718Z,49.82
2022-07-31T13:57:43.001Z,49.77
2022-07-31T13:58:46.692Z,49.71
2022-07-31T13:59:49.698Z,49.50
2022-07-31T14:00:52.876Z,49.67
2022-07-31T14:02:13.438Z,49.53
2022-07-31T14:03:18.516Z,49.67
2022-07-31T14:04:24.399Z,49.35
2022-07-31T14:05:29.026Z,49.11
2022-07-31T14:06:31.949Z,49.18
2022-07-31T14:07:45.727Z,49.21
2022-07-31T14:08:57.913Z,49.36
2022-07-31T14:10:00.835Z,49.20
2022-07-31T14:11:03.721Z,48.84
2022-07-31T14:12:08.486Z,48.89
2022-07-31T14:13:12.906Z,49.32
2022-07-31T14:14:20.208Z,49.11
2022-07-31T14:15:30.175Z,49.17
2022-07-31T14:16:33.316Z,49.23
2022-07-31T14:17:40.398Z,48.82
2022-07-31T14:18:44.550Z,48.38
2022-07-31T14:19:47.726Z,48.14
2022-07-31T14:20:50.898Z,47.80
2022-07-31T14:22:06.713Z,46.94
2022-07-31T14:23:14.456Z,46.05
2022-07-31T14:24:18.055Z,46.11
2022-07-31T14:25:21.036Z,45.13
2022-07-31T14:26:24.084Z,44.38
2022-07-31T14:27:27.352Z,43.25
2022-07-31T14:28:32.239Z,43.13
2022-07-31T14:29:36.080Z,42.75
2022-07-31T14:30:46.595Z,42.53
2022-07-31T14:31:54.289Z,41.75
2022-07-31T14:32:57.337Z,41.55
2022-07-31T14:34:00.225Z,41.16
2022-07-31T14:35:08.109Z,41.38
2022-07-31T14:36:12.069Z,40.81
2022-07-31T14:37:14.989Z,41.14
2022-07-31T14:38:27.260Z,41.42
2022-07-31T14:39:33.231Z,41.48
2022-07-31T14:40:36.743Z,41.47
2022-07-31T14:41:39.700Z,41.42
2022-07-31T14:42:43.060Z,41.36
2022-07-31T14:43:46.124Z,41.41
2022-07-31T14:44:49.065Z,41.38
2022-07-31T14:45:52.417Z,41.35